Time;durP1;ratioP1;P1;durP2;ratioP2;P2;SDS_P1;SDS_P2;PMS_P1;PMS_P2;Temp;Humidity;BMP_temperature;BMP_pressure;BME280_temperature;BME280_humidity;BME280_pressure;Samples;Min_cycle;Max_cycle;Signal;HPM_P1;HPM_P2
2023/08/22 00:02:29;;;;;;;5.90;4.60;;;;;;;;;;110157;268;42471;-33
2023/08/22 00:05:09;;;;;;;7.10;5.00;;;;;;;;;;110193;268;43122;-33
2023/08/22 00:07:45;;;;;;;6.70;4.80;;;;;;;;;;110248;268;38846;-33
2023/08/22 00:10:30;;;;;;;6.80;4.90;;;;;;;;;;110209;268;39717;-33
2023/08/22 00:13:07;;;;;;;6.30;5.10;;;;;;;;;;110149;268;42544;-33
2023/08/22 00:15:54;;;;;;;6.40;4.80;;;;;;;;;;110224;268;42173;-33
2023/08/22 00:18:44;;;;;;;6.70;4.70;;;;;;;;;;110211;268;38690;-33
2023/08/22 00:21:19;;;;;;;8.10;4.90;;;;;;;;;;110263;268;40795;-33
2023/08/22 00:24:07;;;;;;;6.00;4.60;;;;;;;;;;110215;268;49097;-33
2023/08/22 00:26:42;;;;;;;6.50;4.80;;;;;;;;;;110179;268;42184;-33
2023/08/22 00:29:25;;;;;;;6.90;4.80;;;;;;;;;;110227;268;38825;-33
2023/08/22 00:32:06;;;;;;;6.60;4.40;;;;;;;;;;110124;268;39520;-33
2023/08/22 00:34:45;;;;;;;6.90;4.50;;;;;;;;;;110230;268;42803;-33
2023/08/22 00:37:24;;;;;;;6.40;4.70;;;;;;;;;;110235;268;42005;-33
2023/08/22 00:40:11;;;;;;;7.10;4.80;;;;;;;;;;110202;268;38439;-33
2023/08/22 00:42:52;;;;;;;6.40;4.40;;;;;;;;;;110140;268;39562;-33
2023/08/22 00:45:36;;;;;;;7.60;4.70;;;;;;;;;;110174;268;42622;-33
2023/08/22 00:48:15;;;;;;;6.80;4.60;;;;;;;;;;110252;268;42091;-33
2023/08/22 00:50:53;;;;;;;6.00;4.60;;;;;;;;;;110209;268;38675;-33
2023/08/22 00:53:38;;;;;;;6.40;4.50;;;;;;;;;;110185;268;39701;-33
2023/08/22 00:56:21;;;;;;;6.50;4.40;;;;;;;;;;110205;268;42841;-33
2023/08/22 00:59:01;;;;;;;6.30;4.70;;;;;;;;;;110248;268;42091;-33
2023/08/22 01:01:37;;;;;;;6.30;4.40;;;;;;;;;;110228;268;40015;-32
2023/08/22 01:04:11;;;;;;;6.60;4.40;;;;;;;;;;110175;268;40620;-33
2023/08/22 01:06:54;;;;;;;6.80;4.60;;;;;;;;;;110270;268;43985;-33
2023/08/22 01:09:38;;;;;;;7.70;4.60;;;;;;;;;;110196;268;42383;-33
2023/08/22 01:12:30;;;;;;;6.30;4.70;;;;;;;;;;110256;268;39004;-33
2023/08/22 01:15:13;;;;;;;6.40;4.40;;;;;;;;;;110169;268;45446;-33
2023/08/22 01:17:54;;;;;;;7.30;5.10;;;;;;;;;;110180;268;42593;-33
2023/08/22 01:20:38;;;;;;;7.40;4.40;;;;;;;;;;110097;268;175466;-33
2023/08/22 01:23:16;;;;;;;6.10;4.50;;;;;;;;;;110211;268;38963;-33
2023/08/22 01:25:55;;;;;;;6.40;4.30;;;;;;;;;;110225;268;39726;-33
2023/08/22 01:28:39;;;;;;;7.30;4.60;;;;;;;;;;110214;268;43198;-33
2023/08/22 01:31:26;;;;;;;8.10;5.30;;;;;;;;;;110119;268;175437;-33
2023/08/22 01:34:15;;;;;;;7.20;4.60;;;;;;;;;;110190;268;38976;-33
2023/08/22 01:36:52;;;;;;;7.40;4.60;;;;;;;;;;110255;268;39294;-33
2023/08/22 01:39:33;;;;;;;8.30;5.10;;;;;;;;;;110225;268;43045;-33
2023/08/22 01:42:13;;;;;;;7.10;4.70;;;;;;;;;;110236;268;41754;-33
2023/08/22 01:44:47;;;;;;;7.30;4.60;;;;;;;;;;110158;268;38879;-33
2023/08/22 01:47:29;;;;;;;6.80;4.70;;;;;;;;;;110106;268;39703;-33
2023/08/22 01:50:07;;;;;;;8.90;5.00;;;;;;;;;;110197;268;42469;-33
2023/08/22 01:52:52;;;;;;;6.90;4.70;;;;;;;;;;110227;268;41828;-33
2023/08/22 01:55:35;;;;;;;6.60;4.60;;;;;;;;;;110181;268;38769;-33
2023/08/22 01:58:11;;;;;;;7.20;4.70;;;;;;;;;;110223;268;40726;-33
2023/08/22 02:01:11;;;;;;;7.60;4.80;;;;;;;;;;110229;268;42876;-33
2023/08/22 02:03:47;;;;;;;7.20;4.50;;;;;;;;;;110166;268;43169;-33
2023/08/22 02:06:27;;;;;;;6.40;4.60;;;;;;;;;;110157;268;44753;-33
2023/08/22 02:09:08;;;;;;;7.00;4.70;;;;;;;;;;110227;268;39715;-32
2023/08/22 02:11:47;;;;;;;6.60;4.80;;;;;;;;;;110238;268;42590;-32
2023/08/22 02:14:33;;;;;;;6.40;4.60;;;;;;;;;;110174;268;41714;-32
2023/08/22 02:17:11;;;;;;;7.10;4.60;;;;;;;;;;110119;268;175469;-32
2023/08/22 02:19:56;;;;;;;6.50;4.50;;;;;;;;;;110248;268;40706;-33
2023/08/22 02:22:31;;;;;;;6.20;4.40;;;;;;;;;;110222;268;42491;-33
2023/08/22 02:25:07;;;;;;;6.00;4.50;;;;;;;;;;110230;268;42914;-33
2023/08/22 02:27:49;;;;;;;6.80;4.50;;;;;;;;;;110232;268;38712;-33
2023/08/22 02:30:26;;;;;;;6.50;4.40;;;;;;;;;;110022;269;39392;-33
2023/08/22 02:33:06;;;;;;;7.20;4.60;;;;;;;;;;110024;269;42518;-33
2023/08/22 02:35:47;;;;;;;6.30;4.60;;;;;;;;;;110019;269;43121;-33
2023/08/22 02:38:32;;;;;;;6.40;4.60;;;;;;;;;;110012;269;38636;-33
2023/08/22 02:41:18;;;;;;;7.30;4.40;;;;;;;;;;110000;269;39645;-33
2023/08/22 02:44:06;;;;;;;5.90;4.30;;;;;;;;;;110032;269;42500;-33
2023/08/22 02:46:49;;;;;;;6.70;4.30;;;;;;;;;;109962;269;42150;-33
2023/08/22 02:49:30;;;;;;;6.40;4.50;;;;;;;;;;110050;269;38444;-33
2023/08/22 02:52:07;;;;;;;5.70;4.60;;;;;;;;;;110032;269;39474;-33
2023/08/22 02:54:47;;;;;;;7.20;4.80;;;;;;;;;;110013;269;44045;-33
2023/08/22 02:57:26;;;;;;;7.00;4.40;;;;;;;;;;109724;269;49219;-33
2023/08/22 03:00:11;;;;;;;6.60;4.50;;;;;;;;;;110005;269;38610;-33
2023/08/22 03:02:53;;;;;;;6.10;4.40;;;;;;;;;;110022;269;39370;-33
2023/08/22 03:05:35;;;;;;;7.10;4.60;;;;;;;;;;109976;269;42542;-33
2023/08/22 03:08:10;;;;;;;6.20;4.30;;;;;;;;;;109980;269;41788;-33
2023/08/22 03:10:49;;;;;;;6.10;4.40;;;;;;;;;;109979;269;38619;-33
2023/08/22 03:13:28;;;;;;;6.10;4.10;;;;;;;;;;110030;269;39717;-33
2023/08/22 03:16:06;;;;;;;7.00;4.50;;;;;;;;;;109954;269;42766;-33
2023/08/22 03:18:42;;;;;;;5.70;4.40;;;;;;;;;;110029;269;41793;-33
2023/08/22 03:21:24;;;;;;;5.70;4.40;;;;;;;;;;109952;269;38482;-33
2023/08/22 03:24:04;;;;;;;6.90;4.50;;;;;;;;;;109982;269;39452;-33
2023/08/22 03:26:46;;;;;;;6.60;4.70;;;;;;;;;;109865;266;175480;-33
2023/08/22 03:29:31;;;;;;;6.70;4.40;;;;;;;;;;110043;268;42204;-33
2023/08/22 03:32:10;;;;;;;5.90;4.30;;;;;;;;;;110132;268;38491;-33
2023/08/22 03:34:46;;;;;;;6.80;4.30;;;;;;;;;;110273;268;39650;-33
2023/08/22 03:37:21;;;;;;;6.70;4.40;;;;;;;;;;110228;268;44288;-33
2023/08/22 03:40:05;;;;;;;6.30;3.90;;;;;;;;;;110306;268;41730;-33
2023/08/22 03:42:46;;;;;;;6.20;4.20;;;;;;;;;;110240;268;39875;-33
2023/08/22 03:45:26;;;;;;;6.30;4.00;;;;;;;;;;110169;268;177195;-33
2023/08/22 03:48:03;;;;;;;5.50;4.50;;;;;;;;;;110240;268;42970;-33
2023/08/22 03:50:40;;;;;;;6.60;4.50;;;;;;;;;;110282;268;42026;-33
2023/08/22 03:53:17;;;;;;;5.60;3.90;;;;;;;;;;110307;268;38747;-33
2023/08/22 03:55:51;;;;;;;5.60;4.30;;;;;;;;;;110290;268;39566;-33
2023/08/22 03:58:24;;;;;;;6.30;4.30;;;;;;;;;;110257;268;45058;-33
2023/08/22 04:01:03;;;;;;;6.70;4.60;;;;;;;;;;110304;268;42223;-33
2023/08/22 04:03:40;;;;;;;5.40;4.20;;;;;;;;;;110305;268;39857;-33
2023/08/22 04:06:14;;;;;;;7.00;4.60;;;;;;;;;;110296;268;39584;-33
2023/08/22 04:08:51;;;;;;;5.80;4.40;;;;;;;;;;110152;268;175492;-33
2023/08/22 04:11:26;;;;;;;6.30;4.20;;;;;;;;;;110293;268;43475;-33
2023/08/22 04:14:00;;;;;;;6.70;4.60;;;;;;;;;;110294;268;38467;-33
2023/08/22 04:16:38;;;;;;;5.80;4.40;;;;;;;;;;110263;268;39699;-33
2023/08/22 04:19:17;;;;;;;5.80;4.30;;;;;;;;;;110240;268;49153;-33
2023/08/22 04:21:51;;;;;;;5.80;4.50;;;;;;;;;;110255;268;42033;-33
2023/08/22 04:24:27;;;;;;;6.60;4.40;;;;;;;;;;110291;268;38722;-33
2023/08/22 04:27:02;;;;;;;6.40;4.60;;;;;;;;;;110256;268;39765;-33
2023/08/22 04:29:39;;;;;;;5.60;4.30;;;;;;;;;;110280;268;49042;-33
2023/08/22 04:32:15;;;;;;;5.70;4.40;;;;;;;;;;110247;268;43282;-33
2023/08/22 04:34:52;;;;;;;6.20;4.70;;;;;;;;;;110310;268;38719;-33
2023/08/22 04:37:30;;;;;;;6.10;4.30;;;;;;;;;;110085;268;192768;-33
2023/08/22 04:40:05;;;;;;;6.00;4.40;;;;;;;;;;110149;268;49197;-33
2023/08/22 04:42:42;;;;;;;6.20;4.50;;;;;;;;;;110304;268;41956;-33
2023/08/22 04:45:20;;;;;;;5.40;4.40;;;;;;;;;;110181;268;38636;-33
2023/08/22 04:47:55;;;;;;;6.40;4.50;;;;;;;;;;110147;268;39652;-33
2023/08/22 04:50:30;;;;;;;6.40;4.30;;;;;;;;;;110190;268;43089;-33
2023/08/22 04:53:06;;;;;;;6.20;4.40;;;;;;;;;;110240;268;41765;-33
2023/08/22 04:55:41;;;;;;;6.70;4.10;;;;;;;;;;110241;268;38449;-33
2023/08/22 04:58:17;;;;;;;6.00;4.20;;;;;;;;;;110018;265;174404;-33
2023/08/22 05:00:51;;;;;;;5.70;4.00;;;;;;;;;;110185;268;44047;-33
2023/08/22 05:03:27;;;;;;;5.80;4.30;;;;;;;;;;110187;268;41805;-33
2023/08/22 05:06:03;;;;;;;5.90;4.20;;;;;;;;;;110195;268;38669;-33
2023/08/22 05:08:36;;;;;;;5.90;4.10;;;;;;;;;;110016;268;175412;-33
2023/08/22 05:11:10;;;;;;;5.40;3.80;;;;;;;;;;107860;268;3010904;-33
2023/08/22 05:13:44;;;;;;;6.60;4.10;;;;;;;;;;110219;268;42048;-33
2023/08/22 05:16:20;;;;;;;6.40;4.20;;;;;;;;;;110227;268;38852;-33
2023/08/22 05:18:55;;;;;;;6.00;4.10;;;;;;;;;;110181;268;39302;-33
2023/08/22 05:21:29;;;;;;;5.80;4.10;;;;;;;;;;110292;268;42804;-33
2023/08/22 05:24:03;;;;;;;6.10;3.90;;;;;;;;;;110262;268;41787;-33
2023/08/22 05:26:38;;;;;;;6.70;4.30;;;;;;;;;;110227;268;38901;-33
2023/08/22 05:29:12;;;;;;;5.20;3.80;;;;;;;;;;110217;268;39543;-33
2023/08/22 05:31:47;;;;;;;5.90;4.10;;;;;;;;;;110203;268;42507;-33
2023/08/22 05:34:24;;;;;;;6.90;4.00;;;;;;;;;;110106;268;42034;-33
2023/08/22 05:37:02;;;;;;;5.40;3.80;;;;;;;;;;110236;268;39456;-33
2023/08/22 05:39:37;;;;;;;6.60;3.90;;;;;;;;;;110274;268;39274;-33
2023/08/22 05:42:17;;;;;;;5.20;3.40;;;;;;;;;;110198;268;42847;-33
2023/08/22 05:44:56;;;;;;;5.40;3.80;;;;;;;;;;110141;268;42015;-33
2023/08/22 05:47:31;;;;;;;5.70;3.70;;;;;;;;;;110291;268;38687;-33
2023/08/22 05:50:07;;;;;;;5.80;3.90;;;;;;;;;;110188;268;39301;-33
2023/08/22 05:52:50;;;;;;;5.70;3.80;;;;;;;;;;110250;268;42755;-33
2023/08/22 05:55:23;;;;;;;;;;;;;;;;;;110251;268;42154;-33
2023/08/22 05:58:02;;;;;;;4.80;3.40;;;;;;;;;;110257;268;38647;-33
2023/08/22 06:00:43;;;;;;;6.10;3.70;;;;;;;;;;110195;268;39608;-33
2023/08/22 06:03:23;;;;;;;6.80;3.60;;;;;;;;;;110093;268;42945;-33
2023/08/22 06:06:00;;;;;;;7.20;3.80;;;;;;;;;;110101;268;42275;-33
2023/08/22 06:08:41;;;;;;;6.60;3.80;;;;;;;;;;110249;268;38874;-33
2023/08/22 06:11:16;;;;;;;6.70;3.40;;;;;;;;;;110184;268;39350;-33
2023/08/22 06:13:55;;;;;;;6.40;3.50;;;;;;;;;;110227;268;42591;-33
2023/08/22 06:16:35;;;;;;;6.90;3.70;;;;;;;;;;110242;268;42150;-33
2023/08/22 06:19:13;;;;;;;6.90;3.50;;;;;;;;;;110220;268;40031;-33
2023/08/22 06:21:55;;;;;;;7.60;3.30;;;;;;;;;;110232;268;39315;-33
2023/08/22 06:24:35;;;;;;;6.20;3.50;;;;;;;;;;110220;268;42699;-33
2023/08/22 06:27:14;;;;;;;5.80;3.20;;;;;;;;;;110283;268;43102;-33
2023/08/22 06:29:48;;;;;;;6.00;3.10;;;;;;;;;;110244;268;39642;-33
2023/08/22 06:32:25;;;;;;;5.10;3.10;;;;;;;;;;110220;268;46883;-33
2023/08/22 06:35:11;;;;;;;5.60;3.00;;;;;;;;;;110142;268;175048;-33
2023/08/22 06:37:49;;;;;;;5.10;3.00;;;;;;;;;;110252;268;42116;-33
2023/08/22 06:40:29;;;;;;;5.60;3.10;;;;;;;;;;109915;268;345847;-33
2023/08/22 06:43:05;;;;;;;5.40;2.80;;;;;;;;;;110229;268;39578;-33
2023/08/22 06:45:41;;;;;;;5.40;2.70;;;;;;;;;;110274;268;42624;-33
2023/08/22 06:48:21;;;;;;;5.10;2.70;;;;;;;;;;110260;268;42002;-33
2023/08/22 06:51:19;;;;;;;5.50;2.90;;;;;;;;;;110212;268;38601;-33
2023/08/22 06:53:56;;;;;;;6.00;2.80;;;;;;;;;;110247;268;39673;-33
2023/08/22 06:56:30;;;;;;;5.30;2.70;;;;;;;;;;110251;268;42502;-33
2023/08/22 06:59:04;;;;;;;5.60;2.70;;;;;;;;;;110150;268;41964;-33
2023/08/22 07:01:40;;;;;;;5.80;2.50;;;;;;;;;;110220;268;38677;-33
2023/08/22 07:04:14;;;;;;;6.30;2.70;;;;;;;;;;110249;268;39323;-33
2023/08/22 07:06:50;;;;;;;5.40;2.50;;;;;;;;;;110216;268;42814;-33
2023/08/22 07:09:24;;;;;;;5.40;2.60;;;;;;;;;;110274;268;41989;-33
2023/08/22 07:12:00;;;;;;;5.70;2.90;;;;;;;;;;110237;265;38762;-33
2023/08/22 07:14:35;;;;;;;6.70;2.60;;;;;;;;;;110250;268;39724;-33
2023/08/22 07:17:09;;;;;;;4.80;2.60;;;;;;;;;;110216;268;42833;-33
2023/08/22 07:19:43;;;;;;;6.30;2.60;;;;;;;;;;110153;268;41768;-33
2023/08/22 07:22:17;;;;;;;6.10;2.70;;;;;;;;;;110125;268;38507;-33
2023/08/22 07:24:52;;;;;;;6.00;2.60;;;;;;;;;;110197;268;40706;-33
2023/08/22 07:27:27;;;;;;;5.40;2.40;;;;;;;;;;110174;268;42469;-33
2023/08/22 07:30:01;;;;;;;6.40;2.60;;;;;;;;;;110166;268;42021;-33
2023/08/22 07:32:36;;;;;;;5.70;2.50;;;;;;;;;;110140;268;38977;-33
2023/08/22 07:35:15;;;;;;;4.80;2.30;;;;;;;;;;110159;268;41724;-33
2023/08/22 07:37:51;;;;;;;5.00;2.50;;;;;;;;;;110188;268;43225;-33
2023/08/22 07:40:32;;;;;;;7.50;2.60;;;;;;;;;;110100;268;41735;-33
2023/08/22 07:43:08;;;;;;;6.60;2.40;;;;;;;;;;110118;268;38948;-33
2023/08/22 07:45:48;;;;;;;7.20;2.60;;;;;;;;;;110203;268;39772;-33
2023/08/22 07:48:27;;;;;;;5.20;2.20;;;;;;;;;;110134;268;44253;-33
2023/08/22 07:51:08;;;;;;;5.40;2.40;;;;;;;;;;110126;268;43380;-33
2023/08/22 07:53:53;;;;;;;5.50;2.70;;;;;;;;;;110070;268;39952;-33
2023/08/22 07:56:30;;;;;;;4.60;2.00;;;;;;;;;;110140;268;39348;-33
2023/08/22 07:59:06;;;;;;;5.30;2.30;;;;;;;;;;110130;268;42767;-33
2023/08/22 08:01:49;;;;;;;5.00;2.20;;;;;;;;;;110098;268;42262;-33
2023/08/22 08:04:27;;;;;;;6.60;2.10;;;;;;;;;;110179;268;45707;-32
2023/08/22 08:07:01;;;;;;;5.50;2.20;;;;;;;;;;110243;260;39516;-31
2023/08/22 08:09:35;;;;;;;4.80;2.00;;;;;;;;;;110199;259;42567;-32
2023/08/22 08:12:12;;;;;;;5.30;2.10;;;;;;;;;;110170;267;42335;-33
2023/08/22 08:14:50;;;;;;;6.30;2.10;;;;;;;;;;110264;259;46504;-33
2023/08/22 08:17:25;;;;;;;5.00;2.10;;;;;;;;;;110292;267;39585;-32
2023/08/22 08:20:03;;;;;;;5.10;2.30;;;;;;;;;;110300;267;42467;-31
2023/08/22 08:22:38;;;;;;;6.50;2.80;;;;;;;;;;110199;267;41737;-31
2023/08/22 08:25:12;;;;;;;6.10;2.60;;;;;;;;;;110191;259;38473;-32
2023/08/22 08:27:47;;;;;;;6.20;2.80;;;;;;;;;;110179;267;40789;-33
2023/08/22 08:30:24;;;;;;;5.90;2.60;;;;;;;;;;110156;269;42547;-31
2023/08/22 08:32:57;;;;;;;6.30;2.30;;;;;;;;;;110119;268;43216;-32
2023/08/22 08:35:32;;;;;;;4.90;2.30;;;;;;;;;;110161;269;38684;-33
2023/08/22 08:38:14;;;;;;;5.30;2.20;;;;;;;;;;110135;268;39748;-33
2023/08/22 08:40:52;;;;;;;6.20;2.30;;;;;;;;;;110145;268;42489;-32
2023/08/22 08:43:26;;;;;;;5.80;2.20;;;;;;;;;;110154;269;42229;-33
2023/08/22 08:46:05;;;;;;;4.40;2.00;;;;;;;;;;110092;269;38484;-31
2023/08/22 08:48:48;;;;;;;5.40;2.00;;;;;;;;;;110143;266;39356;-33
2023/08/22 08:51:25;;;;;;;5.10;1.80;;;;;;;;;;110137;269;42796;-32
2023/08/22 08:54:01;;;;;;;3.90;1.60;;;;;;;;;;110044;269;43315;-33
2023/08/22 08:56:37;;;;;;;4.60;1.70;;;;;;;;;;110098;269;40891;-32
2023/08/22 08:59:16;;;;;;;3.80;1.40;;;;;;;;;;110076;269;40805;-32
2023/08/22 09:01:53;;;;;;;3.90;1.40;;;;;;;;;;110078;269;43063;-32
2023/08/22 09:04:32;;;;;;;3.80;1.40;;;;;;;;;;110071;269;43730;-32
2023/08/22 09:07:10;;;;;;;4.00;1.30;;;;;;;;;;110114;269;38439;-32
2023/08/22 09:09:44;;;;;;;3.10;1.40;;;;;;;;;;110113;269;39666;-32
2023/08/22 09:12:21;;;;;;;4.80;1.50;;;;;;;;;;110126;269;42806;-32
2023/08/22 09:14:56;;;;;;;4.40;1.60;;;;;;;;;;110075;269;43727;-32
2023/08/22 09:17:35;;;;;;;4.40;1.70;;;;;;;;;;110209;268;38428;-33
2023/08/22 09:20:13;;;;;;;4.70;1.90;;;;;;;;;;110188;269;39739;-33
2023/08/22 09:22:48;;;;;;;5.10;1.80;;;;;;;;;;110179;268;42940;-32
2023/08/22 09:25:23;;;;;;;4.10;1.70;;;;;;;;;;110116;268;42208;-32
2023/08/22 09:27:59;;;;;;;4.50;1.70;;;;;;;;;;110047;267;175421;-31
2023/08/22 09:30:33;;;;;;;4.70;1.70;;;;;;;;;;110058;267;192731;-31
2023/08/22 09:33:07;;;;;;;5.10;1.80;;;;;;;;;;110153;267;43017;-33
2023/08/22 09:35:45;;;;;;;4.60;1.70;;;;;;;;;;110144;267;42314;-33
2023/08/22 09:38:21;;;;;;;5.10;1.80;;;;;;;;;;110181;267;38679;-33
2023/08/22 09:40:57;;;;;;;4.60;1.60;;;;;;;;;;110201;263;39668;-33
2023/08/22 09:43:33;;;;;;;4.70;1.80;;;;;;;;;;110222;267;43265;-33
2023/08/22 09:46:18;;;;;;;4.30;1.90;;;;;;;;;;110160;267;41982;-33
2023/08/22 09:48:56;;;;;;;5.00;1.70;;;;;;;;;;110163;267;38617;-32
2023/08/22 09:51:34;;;;;;;4.50;2.00;;;;;;;;;;110165;259;39274;-34
2023/08/22 09:54:12;;;;;;;5.10;2.00;;;;;;;;;;110169;267;42888;-35
2023/08/22 09:56:51;;;;;;;5.10;1.90;;;;;;;;;;110163;267;49428;-33
2023/08/22 09:59:26;;;;;;;4.70;1.90;;;;;;;;;;110199;267;38864;-32
2023/08/22 10:02:07;;;;;;;4.40;1.70;;;;;;;;;;110166;267;40587;-34
2023/08/22 10:04:48;;;;;;;4.30;1.70;;;;;;;;;;110131;267;43060;-34
2023/08/22 10:07:28;;;;;;;5.30;1.80;;;;;;;;;;110179;267;42174;-34
2023/08/22 10:10:08;;;;;;;4.00;1.60;;;;;;;;;;110158;267;38864;-33
2023/08/22 10:12:46;;;;;;;3.40;1.50;;;;;;;;;;110182;259;39241;-34
2023/08/22 10:15:23;;;;;;;4.80;1.60;;;;;;;;;;110218;267;42970;-32
2023/08/22 10:17:57;;;;;;;3.00;1.30;;;;;;;;;;110179;267;42012;-32
2023/08/22 10:20:35;;;;;;;4.00;1.60;;;;;;;;;;110108;267;175370;-32
2023/08/22 10:23:15;;;;;;;3.70;1.40;;;;;;;;;;110095;267;175405;-32
2023/08/22 10:25:56;;;;;;;3.30;1.30;;;;;;;;;;110156;267;42843;-32
2023/08/22 10:28:52;;;;;;;3.30;1.20;;;;;;;;;;110194;267;42020;-32
2023/08/22 10:31:30;;;;;;;3.90;1.20;;;;;;;;;;110186;267;38714;-32
2023/08/22 10:34:05;;;;;;;3.30;1.30;;;;;;;;;;110196;267;39455;-32
2023/08/22 10:37:00;;;;;;;3.00;1.00;;;;;;;;;;110167;267;42563;-32
2023/08/22 10:39:45;;;;;;;3.50;1.30;;;;;;;;;;110191;267;42204;-32
2023/08/22 10:42:28;;;;;;;3.30;1.20;;;;;;;;;;110197;267;38442;-32
2023/08/22 10:45:18;;;;;;;3.00;1.20;;;;;;;;;;110129;259;40506;-32
2023/08/22 10:48:11;;;;;;;3.50;1.20;;;;;;;;;;110235;267;49495;-32
2023/08/22 10:50:49;;;;;;;2.60;1.00;;;;;;;;;;110098;267;42332;-32
2023/08/22 10:53:31;;;;;;;3.70;1.20;;;;;;;;;;110179;267;40894;-32
2023/08/22 10:56:24;;;;;;;3.70;1.20;;;;;;;;;;110096;267;39292;-32
2023/08/22 10:59:04;;;;;;;3.10;1.20;;;;;;;;;;110122;267;43826;-32
2023/08/22 11:01:40;;;;;;;4.00;1.30;;;;;;;;;;110118;267;42167;-32
2023/08/22 11:04:15;;;;;;;3.40;1.20;;;;;;;;;;110034;267;175364;-33
2023/08/22 11:06:54;;;;;;;3.60;1.30;;;;;;;;;;110102;267;39545;-32
2023/08/22 11:09:32;;;;;;;3.20;1.10;;;;;;;;;;110132;267;42825;-32
2023/08/22 11:12:19;;;;;;;3.80;1.40;;;;;;;;;;110172;259;43400;-32
2023/08/22 11:14:58;;;;;;;3.80;1.20;;;;;;;;;;110136;267;38475;-33
2023/08/22 11:17:40;;;;;;;3.50;1.30;;;;;;;;;;110083;267;39794;-34
2023/08/22 11:20:21;;;;;;;3.60;1.30;;;;;;;;;;110019;268;175047;-32
2023/08/22 11:23:15;;;;;;;3.90;1.30;;;;;;;;;;110125;267;42197;-33
2023/08/22 11:26:06;;;;;;;2.40;1.10;;;;;;;;;;110123;259;38517;-34
2023/08/22 11:28:46;;;;;;;3.60;1.40;;;;;;;;;;110044;267;45104;-33
2023/08/22 11:31:28;;;;;;;4.40;1.40;;;;;;;;;;110143;267;42850;-34
2023/08/22 11:34:08;;;;;;;3.50;1.30;;;;;;;;;;110138;268;43263;-33
2023/08/22 11:36:51;;;;;;;3.50;1.30;;;;;;;;;;110060;267;38698;-33
2023/08/22 11:39:30;;;;;;;3.20;1.10;;;;;;;;;;110109;267;39924;-35
2023/08/22 11:42:08;;;;;;;4.00;1.20;;;;;;;;;;110053;267;44081;-34
2023/08/22 11:45:05;;;;;;;3.20;1.20;;;;;;;;;;110113;267;42648;-33
2023/08/22 11:47:45;;;;;;;4.10;1.50;;;;;;;;;;110121;267;38435;-33
2023/08/22 11:50:36;;;;;;;3.90;1.30;;;;;;;;;;110196;264;39505;-32
2023/08/22 11:53:17;;;;;;;3.10;1.20;;;;;;;;;;110081;267;42868;-33
2023/08/22 11:56:05;;;;;;;2.90;1.20;;;;;;;;;;110122;267;43068;-34
2023/08/22 11:58:54;;;;;;;3.60;1.30;;;;;;;;;;110047;267;38877;-34
2023/08/22 12:01:31;;;;;;;3.10;1.10;;;;;;;;;;110100;267;39718;-34
2023/08/22 12:04:08;;;;;;;3.70;1.30;;;;;;;;;;110003;267;175351;-34
2023/08/22 12:06:44;;;;;;;3.40;1.30;;;;;;;;;;110123;267;42185;-33
2023/08/22 12:09:24;;;;;;;2.80;1.10;;;;;;;;;;110034;263;175018;-33
2023/08/22 12:12:14;;;;;;;3.50;1.30;;;;;;;;;;110168;263;39599;-33
2023/08/22 12:14:52;;;;;;;3.90;1.50;;;;;;;;;;110234;267;42601;-33
2023/08/22 12:17:35;;;;;;;4.60;1.50;;;;;;;;;;110031;267;175309;-33
2023/08/22 12:20:15;;;;;;;3.70;1.30;;;;;;;;;;110171;259;44786;-33
2023/08/22 12:22:57;;;;;;;3.50;1.30;;;;;;;;;;110182;267;39365;-33
2023/08/22 12:25:38;;;;;;;3.60;1.10;;;;;;;;;;110193;267;42584;-33
2023/08/22 12:28:14;;;;;;;3.50;1.20;;;;;;;;;;110152;267;42449;-33
2023/08/22 12:30:51;;;;;;;3.10;1.30;;;;;;;;;;110159;267;38959;-33
2023/08/22 12:33:32;;;;;;;3.60;1.30;;;;;;;;;;110122;259;39548;-33
2023/08/22 12:36:10;;;;;;;2.60;1.30;;;;;;;;;;110088;267;42991;-35
2023/08/22 12:38:45;;;;;;;3.50;1.30;;;;;;;;;;110057;259;42007;-34
2023/08/22 12:41:20;;;;;;;3.60;1.40;;;;;;;;;;110157;259;38588;-33
2023/08/22 12:44:00;;;;;;;3.80;1.40;;;;;;;;;;110184;267;39750;-33
2023/08/22 12:46:35;;;;;;;3.90;1.30;;;;;;;;;;110112;267;43073;-34
2023/08/22 12:49:15;;;;;;;5.20;1.80;;;;;;;;;;110038;267;42106;-35
2023/08/22 12:51:53;;;;;;;5.20;1.70;;;;;;;;;;110121;259;38637;-34
2023/08/22 12:54:34;;;;;;;3.50;1.20;;;;;;;;;;110130;267;39528;-34
2023/08/22 12:57:10;;;;;;;;;;;;;;;;;;110081;267;42553;-34
2023/08/22 12:59:44;;;;;;;3.50;1.30;;;;;;;;;;110089;267;41569;-34
2023/08/22 13:02:23;;;;;;;3.80;1.50;;;;;;;;;;110171;267;38688;-33
2023/08/22 13:04:56;;;;;;;3.10;1.10;;;;;;;;;;110114;260;39932;-33
2023/08/22 13:07:30;;;;;;;4.40;1.40;;;;;;;;;;110163;267;42824;-33
2023/08/22 13:10:04;;;;;;;2.90;1.10;;;;;;;;;;110140;267;41731;-33
2023/08/22 13:12:39;;;;;;;3.90;1.30;;;;;;;;;;110175;267;38401;-33
2023/08/22 13:15:14;;;;;;;3.20;1.20;;;;;;;;;;110262;267;39530;-33
2023/08/22 13:17:48;;;;;;;2.80;1.10;;;;;;;;;;110125;267;43192;-33
2023/08/22 13:20:24;;;;;;;3.40;1.40;;;;;;;;;;110199;267;42170;-33
2023/08/22 13:23:01;;;;;;;3.40;1.10;;;;;;;;;;110274;267;38822;-33
2023/08/22 13:25:35;;;;;;;3.00;1.00;;;;;;;;;;110228;267;40672;-33
2023/08/22 13:28:14;;;;;;;3.50;1.30;;;;;;;;;;110249;267;42994;-33
2023/08/22 13:30:49;;;;;;;3.80;1.30;;;;;;;;;;110237;267;41806;-33
2023/08/22 13:33:23;;;;;;;2.60;1.00;;;;;;;;;;110268;267;38458;-33
2023/08/22 13:36:02;;;;;;;3.10;1.10;;;;;;;;;;110127;265;40826;-33
2023/08/22 13:38:37;;;;;;;3.20;1.20;;;;;;;;;;110173;267;42770;-33
2023/08/22 13:41:13;;;;;;;2.50;1.00;;;;;;;;;;110115;259;41705;-33
2023/08/22 13:43:54;;;;;;;3.50;1.00;;;;;;;;;;110157;267;39127;-33
2023/08/22 13:46:33;;;;;;;2.50;1.00;;;;;;;;;;110141;259;39737;-34
2023/08/22 13:49:11;;;;;;;2.70;1.10;;;;;;;;;;110159;267;44088;-33
2023/08/22 13:51:47;;;;;;;2.70;1.00;;;;;;;;;;110105;263;41806;-33
2023/08/22 13:54:24;;;;;;;3.40;1.10;;;;;;;;;;110123;267;38724;-33
2023/08/22 13:56:58;;;;;;;2.80;1.10;;;;;;;;;;110169;267;39368;-33
2023/08/22 13:59:33;;;;;;;2.80;1.20;;;;;;;;;;110175;267;42799;-33
2023/08/22 14:02:06;;;;;;;4.10;1.30;;;;;;;;;;110178;267;42170;-33
2023/08/22 14:04:41;;;;;;;3.10;0.90;;;;;;;;;;110206;267;40011;-33
2023/08/22 14:07:14;;;;;;;3.20;1.00;;;;;;;;;;110168;267;39573;-33
2023/08/22 14:09:48;;;;;;;2.90;1.00;;;;;;;;;;110139;267;44011;-33
2023/08/22 14:12:23;;;;;;;3.60;1.00;;;;;;;;;;110149;267;50499;-33
2023/08/22 14:14:57;;;;;;;3.60;1.30;;;;;;;;;;110228;267;38523;-33
2023/08/22 14:17:31;;;;;;;4.60;1.60;;;;;;;;;;110258;266;39592;-33
2023/08/22 14:20:05;;;;;;;4.40;1.60;;;;;;;;;;110263;266;43765;-33
2023/08/22 14:22:40;;;;;;;4.60;1.60;;;;;;;;;;110302;266;49641;-33
2023/08/22 14:25:14;;;;;;;4.40;1.60;;;;;;;;;;110247;267;38614;-33
2023/08/22 14:27:50;;;;;;;5.70;2.20;;;;;;;;;;110263;267;39594;-34
2023/08/22 14:30:23;;;;;;;6.10;2.10;;;;;;;;;;110145;268;42879;-33
2023/08/22 14:32:58;;;;;;;6.10;2.80;;;;;;;;;;110125;268;48387;-33
2023/08/22 14:35:31;;;;;;;7.00;3.20;;;;;;;;;;110170;268;38854;-33
2023/08/22 14:38:09;;;;;;;8.50;2.90;;;;;;;;;;110133;268;39269;-33
2023/08/22 14:40:55;;;;;;;6.80;3.30;;;;;;;;;;109811;268;311073;-33
2023/08/22 14:43:29;;;;;;;10.00;2.90;;;;;;;;;;110119;268;48221;-33
2023/08/22 14:46:08;;;;;;;6.90;2.90;;;;;;;;;;110046;261;38863;-33
2023/08/22 14:48:48;;;;;;;6.90;2.70;;;;;;;;;;110123;268;39740;-33
2023/08/22 14:51:22;;;;;;;6.80;2.50;;;;;;;;;;109981;268;195922;-33
2023/08/22 14:53:56;;;;;;;5.90;2.60;;;;;;;;;;110153;268;42013;-33
2023/08/22 14:56:30;;;;;;;5.60;2.50;;;;;;;;;;109467;268;889947;-33
2023/08/22 14:59:08;;;;;;;6.10;2.50;;;;;;;;;;110115;268;39681;-33
2023/08/22 15:01:44;;;;;;;5.70;2.20;;;;;;;;;;110105;268;42543;-33
2023/08/22 15:04:25;;;;;;;4.70;2.00;;;;;;;;;;110151;268;41769;-33
2023/08/22 15:07:00;;;;;;;5.20;2.10;;;;;;;;;;110145;268;38484;-33
2023/08/22 15:09:33;;;;;;;5.30;2.00;;;;;;;;;;110131;268;39285;-33
2023/08/22 15:12:11;;;;;;;5.60;1.80;;;;;;;;;;110130;268;44002;-33
2023/08/22 15:14:44;;;;;;;4.70;2.00;;;;;;;;;;110124;268;42314;-33
2023/08/22 15:17:19;;;;;;;4.60;1.90;;;;;;;;;;110157;268;38633;-33
2023/08/22 15:19:56;;;;;;;4.20;1.80;;;;;;;;;;110037;268;175332;-33
2023/08/22 15:22:31;;;;;;;4.90;1.80;;;;;;;;;;110129;268;42719;-33
2023/08/22 15:25:09;;;;;;;4.10;1.70;;;;;;;;;;110134;268;41904;-33
2023/08/22 15:27:44;;;;;;;4.20;1.80;;;;;;;;;;110169;268;38613;-33
2023/08/22 15:30:20;;;;;;;4.90;1.80;;;;;;;;;;110258;267;39849;-33
2023/08/22 15:32:58;;;;;;;4.00;1.60;;;;;;;;;;110097;267;195803;-33
2023/08/22 15:35:31;;;;;;;3.80;1.50;;;;;;;;;;110291;267;41969;-33
2023/08/22 15:38:05;;;;;;;4.60;1.60;;;;;;;;;;110325;267;38692;-33
2023/08/22 15:40:48;;;;;;;3.80;1.60;;;;;;;;;;110245;267;39628;-34
2023/08/22 15:43:24;;;;;;;4.10;1.60;;;;;;;;;;110262;267;43088;-33
2023/08/22 15:46:00;;;;;;;4.20;1.80;;;;;;;;;;110261;267;41975;-33
2023/08/22 15:48:33;;;;;;;3.50;1.40;;;;;;;;;;110276;267;38651;-33
2023/08/22 15:51:08;;;;;;;3.90;1.40;;;;;;;;;;110106;267;175338;-34